createdAt,value
2023-04-16T00:00:49.529Z,96519.09
2023-04-16T00:03:16.193Z,96516.25
2023-04-16T00:05:42.727Z,96511.84
2023-04-16T00:08:09.114Z,96517.22
2023-04-16T00:10:35.492Z,96512.03
2023-04-16T00:13:01.919Z,96516.69
2023-04-16T00:15:28.311Z,96521.78
2023-04-16T00:17:54.750Z,96516.22
2023-04-16T00:20:21.099Z,96518.22
2023-04-16T00:22:47.489Z,96509.88
2023-04-16T00:25:13.894Z,96502.31
2023-04-16T00:27:40.286Z,96515.69
2023-04-16T00:30:06.687Z,96515.16
2023-04-16T00:32:33.082Z,96518.22
2023-04-16T00:34:59.409Z,96516.19
2023-04-16T00:37:25.782Z,96524.84
2023-04-16T00:39:52.169Z,96521.75
2023-04-16T00:42:18.516Z,96521.72
2023-04-16T00:44:44.893Z,96512.44
2023-04-16T00:47:11.255Z,96510.81
2023-04-16T00:49:37.593Z,96508.41
2023-04-16T00:52:03.947Z,96511.66
2023-04-16T00:54:30.290Z,96510.59
2023-04-16T00:56:56.622Z,96507.53
2023-04-16T00:59:23.008Z,96516.31
2023-04-16T01:01:49.524Z,96511.97
2023-04-16T01:04:16.168Z,96520.44
2023-04-16T01:06:42.657Z,96519.81
2023-04-16T01:09:09.134Z,96517.53
2023-04-16T01:11:35.657Z,96518.66
2023-04-16T01:14:02.041Z,96513.72
2023-04-16T01:16:28.521Z,96519.69
2023-04-16T01:18:54.887Z,96504.34
2023-04-16T01:21:21.262Z,96514.31
2023-04-16T01:23:47.603Z,96516.31
2023-04-16T01:26:13.958Z,96511.22
2023-04-16T01:28:40.345Z,96518.47
2023-04-16T01:31:06.718Z,96520.16
2023-04-16T01:33:33.127Z,96525.59
2023-04-16T01:35:59.463Z,96520.78
2023-04-16T01:38:25.813Z,96524.38
2023-04-16T01:40:52.197Z,96529.59
2023-04-16T01:43:18.549Z,96521.69
2023-04-16T01:45:44.910Z,96530.22
2023-04-16T01:48:11.246Z,96527.06
2023-04-16T01:50:37.582Z,96530.94
2023-04-16T01:53:03.968Z,96534.09
2023-04-16T01:55:30.330Z,96529.03
2023-04-16T01:57:56.696Z,96531.03
2023-04-16T02:00:23.032Z,96535.00
2023-04-16T02:02:50.585Z,96531.38
2023-04-16T02:05:17.070Z,96534.63
2023-04-16T02:07:43.419Z,96539.41
2023-04-16T02:10:09.813Z,96538.22
2023-04-16T02:12:36.201Z,96543.16
2023-04-16T02:15:02.590Z,96546.13
2023-04-16T02:17:29.000Z,96533.66
2023-04-16T02:19:55.404Z,96537.78
2023-04-16T02:22:21.761Z,96537.78
2023-04-16T02:24:48.171Z,96533.00
2023-04-16T02:27:14.570Z,96528.38
2023-04-16T02:29:40.926Z,96539.41
2023-04-16T02:32:07.392Z,96537.81
2023-04-16T02:34:33.824Z,96545.53
2023-04-16T02:37:00.159Z,96541.47
2023-04-16T02:39:26.537Z,96538.59
2023-04-16T02:41:52.910Z,96526.81
2023-04-16T02:44:19.242Z,96533.56
2023-04-16T02:46:45.629Z,96528.81
2023-04-16T02:49:12.200Z,96530.38
2023-04-16T02:51:38.611Z,96529.38
2023-04-16T02:54:05.028Z,96533.56
2023-04-16T02:56:31.391Z,96539.13
2023-04-16T02:58:57.732Z,96535.78
2023-04-16T03:01:24.142Z,96535.81
2023-04-16T03:03:50.576Z,96539.31
2023-04-16T03:06:16.977Z,96540.28
2023-04-16T03:08:43.322Z,96534.63
2023-04-16T03:11:09.662Z,96526.72
2023-04-16T03:13:36.043Z,96527.38
2023-04-16T03:16:02.424Z,96536.94
2023-04-16T03:18:28.842Z,96533.34
2023-04-16T03:20:55.194Z,96539.53
2023-04-16T03:23:21.538Z,96533.28
2023-04-16T03:25:47.961Z,96530.50
2023-04-16T03:28:14.356Z,96535.81
2023-04-16T03:30:40.715Z,96534.88
2023-04-16T03:33:07.059Z,96524.13
2023-04-16T03:35:33.399Z,96525.81
2023-04-16T03:37:59.789Z,96531.47
2023-04-16T03:40:26.152Z,96531.88
2023-04-16T03:42:52.500Z,96530.22
2023-04-16T03:45:18.885Z,96523.78
2023-04-16T03:47:45.317Z,96536.63
2023-04-16T03:50:11.757Z,96542.59
2023-04-16T03:52:38.192Z,96527.78
2023-04-16T03:55:04.600Z,96522.72
2023-04-16T03:57:30.938Z,96538.03
2023-04-16T03:59:57.275Z,96521.88
2023-04-16T04:02:23.817Z,96526.22
2023-04-16T04:04:50.357Z,96524.91
2023-04-16T04:07:16.731Z,96519.03
2023-04-16T04:09:43.103Z,96526.94
2023-04-16T04:12:09.500Z,96528.38
2023-04-16T04:14:35.904Z,96525.47
2023-04-16T04:17:02.265Z,96537.69
2023-04-16T04:19:28.609Z,96536.09
2023-04-16T04:21:54.955Z,96540.19
2023-04-16T04:24:21.340Z,96540.75
2023-04-16T04:26:47.689Z,96536.69
2023-04-16T04:29:14.081Z,96529.97
2023-04-16T04:31:40.480Z,96541.28
2023-04-16T04:34:06.885Z,96541.59
2023-04-16T04:36:33.235Z,96540.81
2023-04-16T04:38:59.577Z,96543.63
2023-04-16T04:41:25.923Z,96533.47
2023-04-16T04:43:52.249Z,96544.78
2023-04-16T04:46:18.748Z,96539.09
2023-04-16T04:48:45.180Z,96545.75
2023-04-16T04:51:11.524Z,96555.38
2023-04-16T04:53:37.909Z,96553.69
2023-04-16T04:56:12.157Z,96547.31
2023-04-16T04:58:39.373Z,96543.81
2023-04-16T05:01:05.788Z,96548.59
2023-04-16T05:03:32.272Z,96548.91
2023-04-16T05:05:58.671Z,96551.63
2023-04-16T05:08:24.998Z,96552.50
2023-04-16T05:10:51.343Z,96553.38
2023-04-16T05:13:17.686Z,96558.59
2023-04-16T05:15:44.014Z,96558.47
2023-04-16T05:18:10.404Z,96560.50
2023-04-16T05:20:36.795Z,96561.97
2023-04-16T05:23:03.176Z,96558.75
2023-04-16T05:25:29.518Z,96565.44
2023-04-16T05:27:55.898Z,96565.06
2023-04-16T05:30:22.243Z,96561.88
2023-04-16T05:32:48.643Z,96551.41
2023-04-16T05:35:17.317Z,96558.31
2023-04-16T05:37:44.068Z,96561.53
2023-04-16T05:40:10.443Z,96564.22
2023-04-16T05:42:36.784Z,96561.59
2023-04-16T05:45:03.116Z,96564.72
2023-04-16T05:47:29.512Z,96568.78
2023-04-16T05:49:55.904Z,96563.28
2023-04-16T05:52:22.313Z,96555.69
2023-04-16T05:54:48.707Z,96552.78
2023-04-16T05:57:15.093Z,96558.94
2023-04-16T05:59:41.433Z,96562.38
2023-04-16T06:02:07.811Z,96561.94
2023-04-16T06:04:34.198Z,96563.88
2023-04-16T06:07:00.541Z,96559.84
2023-04-16T06:09:26.923Z,96574.94
2023-04-16T06:11:53.317Z,96573.91
2023-04-16T06:14:19.687Z,96577.41
2023-04-16T06:16:46.090Z,96584.13
2023-04-16T06:19:12.519Z,96587.25
2023-04-16T06:21:38.881Z,96584.34
2023-04-16T06:24:05.281Z,96579.97
2023-04-16T06:26:31.703Z,96588.84
2023-04-16T06:28:58.048Z,96572.78
2023-04-16T06:31:24.481Z,96575.16
2023-04-16T06:33:50.904Z,96573.59
2023-04-16T06:36:17.266Z,96579.97
2023-04-16T06:38:43.674Z,96586.72
2023-04-16T06:41:10.062Z,96582.97
2023-04-16T06:43:36.427Z,96581.28
2023-04-16T06:46:02.818Z,96581.22
2023-04-16T06:48:29.208Z,96578.75
2023-04-16T06:50:55.706Z,96579.09
2023-04-16T06:53:22.137Z,96574.34
2023-04-16T06:55:48.551Z,96579.59
2023-04-16T06:58:14.930Z,96573.69
2023-04-16T07:00:41.380Z,96584.06
2023-04-16T07:03:07.965Z,96574.97
2023-04-16T07:05:34.496Z,96577.13
2023-04-16T07:08:00.868Z,96576.47
2023-04-16T07:10:27.257Z,96579.75
2023-04-16T07:12:53.652Z,96579.91
2023-04-16T07:15:20.075Z,96590.50
2023-04-16T07:17:46.501Z,96578.78
2023-04-16T07:20:12.877Z,96584.38
2023-04-16T07:22:39.227Z,96589.16
2023-04-16T07:25:05.611Z,96588.94
2023-04-16T07:27:31.951Z,96583.78
2023-04-16T07:29:58.309Z,96587.66
2023-04-16T07:32:24.786Z,96590.28
2023-04-16T07:34:51.297Z,96593.13
2023-04-16T07:37:17.675Z,96593.03
2023-04-16T07:39:44.043Z,96592.81
2023-04-16T07:42:10.409Z,96595.91
2023-04-16T07:44:36.800Z,96597.94
2023-04-16T07:47:04.880Z,96602.19
2023-04-16T07:49:31.984Z,96601.47
2023-04-16T07:51:58.348Z,96600.47
2023-04-16T07:54:24.744Z,96601.03
2023-04-16T07:56:51.125Z,96607.88
2023-04-16T07:59:22.537Z,96601.16
2023-04-16T08:01:49.762Z,96607.44
2023-04-16T08:04:16.397Z,96607.66
2023-04-16T08:06:42.950Z,96608.34
2023-04-16T08:09:09.496Z,96611.19
2023-04-16T08:11:36.062Z,96614.81
2023-04-16T08:14:02.411Z,96618.53
2023-04-16T08:16:28.833Z,96615.75
2023-04-16T08:18:55.219Z,96614.94
2023-04-16T08:21:21.565Z,96610.03
2023-04-16T08:23:47.912Z,96617.50
2023-04-16T08:26:14.253Z,96624.38
2023-04-16T08:28:40.590Z,96626.84
2023-04-16T08:31:06.941Z,96620.13
2023-04-16T08:33:33.325Z,96622.59
2023-04-16T08:35:59.671Z,96622.88
2023-04-16T08:38:26.076Z,96621.00
2023-04-16T08:40:52.449Z,96625.13
2023-04-16T08:43:18.794Z,96631.97
2023-04-16T08:45:45.135Z,96627.88
2023-04-16T08:48:11.522Z,96624.38
2023-04-16T08:50:37.917Z,96634.09
2023-04-16T08:53:04.283Z,96639.84
2023-04-16T08:55:30.677Z,96643.22
2023-04-16T08:57:57.065Z,96642.13
2023-04-16T09:00:23.418Z,96641.66
2023-04-16T09:02:50.174Z,96645.84
2023-04-16T09:05:16.765Z,96650.22
2023-04-16T09:07:43.212Z,96649.13
2023-04-16T09:10:09.538Z,96656.44
2023-04-16T09:12:35.882Z,96656.56
2023-04-16T09:15:02.217Z,96666.34
2023-04-16T09:17:28.580Z,96664.59
2023-04-16T09:19:54.959Z,96662.31
2023-04-16T09:22:21.352Z,96660.63
2023-04-16T09:24:47.744Z,96658.72
2023-04-16T09:27:14.088Z,96666.66
2023-04-16T09:29:40.475Z,96666.03
2023-04-16T09:32:06.992Z,96673.88
2023-04-16T09:34:33.398Z,96672.63
2023-04-16T09:36:59.831Z,96666.56
2023-04-16T09:39:26.179Z,96673.16
2023-04-16T09:41:52.511Z,96663.69
2023-04-16T09:44:18.860Z,96672.53
2023-04-16T09:46:45.247Z,96667.00
2023-04-16T09:49:11.769Z,96668.78
2023-04-16T09:51:38.277Z,96663.50
2023-04-16T09:54:04.678Z,96666.53
2023-04-16T09:56:31.059Z,96669.72
2023-04-16T09:58:57.413Z,96660.38
2023-04-16T10:01:23.835Z,96668.88
2023-04-16T10:03:50.449Z,96672.44
2023-04-16T10:06:16.931Z,96675.06
2023-04-16T10:08:43.279Z,96669.91
2023-04-16T10:11:09.619Z,96674.03
2023-04-16T10:13:35.986Z,96669.97
2023-04-16T10:16:02.325Z,96675.72
2023-04-16T10:18:28.671Z,96671.94
2023-04-16T10:20:55.020Z,96670.59
2023-04-16T10:23:21.398Z,96673.84
2023-04-16T10:25:47.755Z,96674.16
2023-04-16T10:28:14.130Z,96674.00
2023-04-16T10:30:40.567Z,96683.97
2023-04-16T10:33:07.079Z,96676.94
2023-04-16T10:35:33.531Z,96679.28
2023-04-16T10:37:59.867Z,96677.78
2023-04-16T10:40:26.244Z,96675.44
2023-04-16T10:42:52.697Z,96674.78
2023-04-16T10:45:19.039Z,96680.09
2023-04-16T10:47:45.385Z,96681.19
2023-04-16T10:50:11.769Z,96687.69
2023-04-16T10:52:38.119Z,96686.00
2023-04-16T10:55:04.512Z,96682.81
2023-04-16T10:57:30.880Z,96689.06
2023-04-16T10:59:57.283Z,96682.91
2023-04-16T11:02:24.656Z,96685.50
2023-04-16T11:04:52.933Z,96686.81
2023-04-16T11:07:19.527Z,96684.81
2023-04-16T11:09:45.966Z,96685.38
2023-04-16T11:12:12.306Z,96684.63
2023-04-16T11:14:38.700Z,96689.31
2023-04-16T11:17:05.096Z,96684.31
2023-04-16T11:19:31.459Z,96682.59
2023-04-16T11:21:57.843Z,96678.72
2023-04-16T11:24:26.209Z,96689.84
2023-04-16T11:26:52.705Z,96682.69
2023-04-16T11:29:19.047Z,96673.75
2023-04-16T11:31:45.444Z,96676.25
2023-04-16T11:34:11.861Z,96674.00
2023-04-16T11:36:38.210Z,96675.25
2023-04-16T11:39:04.551Z,96674.22
2023-04-16T11:41:30.905Z,96674.22
2023-04-16T11:43:57.243Z,96677.06
2023-04-16T11:46:27.677Z,96678.63
2023-04-16T11:48:54.255Z,96674.59
2023-04-16T11:51:20.632Z,96680.00
2023-04-16T11:53:46.990Z,96678.22
2023-04-16T11:56:13.314Z,96678.69
2023-04-16T11:58:43.357Z,96679.03
2023-04-16T12:01:09.955Z,96677.41
2023-04-16T12:03:36.618Z,96679.34
2023-04-16T12:06:03.193Z,96676.66
2023-04-16T12:08:29.546Z,96679.81
2023-04-16T12:10:55.915Z,96678.56
2023-04-16T12:13:22.315Z,96679.91
2023-04-16T12:15:48.747Z,96681.94
2023-04-16T12:18:15.121Z,96673.41
2023-04-16T12:20:41.538Z,96675.75
2023-04-16T12:23:07.912Z,96681.47
2023-04-16T12:25:34.291Z,96679.03
2023-04-16T12:28:00.756Z,96678.34
2023-04-16T12:30:27.104Z,96678.19
2023-04-16T12:32:53.534Z,96689.06
2023-04-16T12:35:19.968Z,96683.16
2023-04-16T12:37:46.382Z,96681.44
2023-04-16T12:40:12.748Z,96684.47
2023-04-16T12:42:39.233Z,96676.81
2023-04-16T12:45:05.605Z,96678.31
2023-04-16T12:47:32.069Z,96683.56
2023-04-16T12:49:58.453Z,96675.47
2023-04-16T12:52:24.855Z,96675.50
2023-04-16T12:54:51.198Z,96674.44
2023-04-16T12:57:17.532Z,96669.25
2023-04-16T12:59:43.865Z,96665.94
2023-04-16T13:02:10.352Z,96666.31
2023-04-16T13:04:36.919Z,96659.75
2023-04-16T13:07:03.313Z,96659.19
2023-04-16T13:09:29.694Z,96663.31
2023-04-16T13:11:56.078Z,96661.91
2023-04-16T13:14:22.465Z,96655.72
2023-04-16T13:16:48.853Z,96657.44
2023-04-16T13:19:15.252Z,96662.84
2023-04-16T13:21:41.610Z,96659.34
2023-04-16T13:24:07.941Z,96655.22
2023-04-16T13:26:34.280Z,96660.00
2023-04-16T13:29:00.655Z,96656.91
2023-04-16T13:31:27.172Z,96654.31
2023-04-16T13:33:53.623Z,96652.13
2023-04-16T13:36:20.041Z,96657.72
2023-04-16T13:38:46.393Z,96651.88
2023-04-16T13:41:12.774Z,96649.03
2023-04-16T13:43:39.459Z,96648.53
2023-04-16T13:46:05.894Z,96647.50
2023-04-16T13:48:32.281Z,96651.56
2023-04-16T13:50:58.940Z,96647.94
2023-04-16T13:53:25.385Z,96647.44
2023-04-16T13:55:51.789Z,96640.25
2023-04-16T13:58:18.168Z,96644.91
2023-04-16T14:00:44.581Z,96634.13
2023-04-16T14:03:11.057Z,96644.69
2023-04-16T14:05:37.524Z,96638.09
2023-04-16T14:08:03.914Z,96636.91
2023-04-16T14:10:30.568Z,96632.00
2023-04-16T14:12:56.990Z,96639.63
2023-04-16T14:15:23.329Z,96641.78
2023-04-16T14:17:49.739Z,96639.31
2023-04-16T14:20:16.376Z,96642.81
2023-04-16T14:22:42.763Z,96641.19
2023-04-16T14:25:09.182Z,96644.56
2023-04-16T14:27:35.526Z,96648.06
2023-04-16T14:30:01.877Z,96642.06
2023-04-16T14:32:28.331Z,96640.41
2023-04-16T14:34:54.893Z,96638.03
2023-04-16T14:37:21.283Z,96637.63
2023-04-16T14:39:47.725Z,96640.19
2023-04-16T14:42:14.072Z,96643.28
2023-04-16T14:44:40.412Z,96649.03
2023-04-16T14:47:06.752Z,96651.22
2023-04-16T14:49:33.140Z,96643.97
2023-04-16T14:51:59.490Z,96653.16
2023-04-16T14:54:25.825Z,96645.78
2023-04-16T14:56:52.154Z,96647.41
2023-04-16T14:59:18.711Z,96647.53
2023-04-16T15:01:45.200Z,96651.91
2023-04-16T15:04:11.770Z,96641.25
2023-04-16T15:06:38.317Z,96643.88
2023-04-16T15:09:04.788Z,96643.59
2023-04-16T15:11:31.159Z,96633.75
2023-04-16T15:13:57.558Z,96632.03
2023-04-16T15:16:23.960Z,96641.41
2023-04-16T15:18:50.389Z,96634.38
2023-04-16T15:21:16.768Z,96634.19
2023-04-16T15:23:43.169Z,96632.34
2023-04-16T15:26:09.525Z,96638.50
2023-04-16T15:28:35.871Z,96637.84
2023-04-16T15:31:02.277Z,96636.19
2023-04-16T15:33:28.712Z,96643.53
2023-04-16T15:35:55.120Z,96650.09
2023-04-16T15:38:21.541Z,96649.28
2023-04-16T15:40:47.907Z,96646.44
2023-04-16T15:43:14.340Z,96644.81
2023-04-16T15:45:40.724Z,96650.09
2023-04-16T15:48:07.136Z,96652.19
2023-04-16T15:50:33.516Z,96654.41
2023-04-16T15:52:59.842Z,96649.00
2023-04-16T15:55:26.188Z,96652.53
2023-04-16T15:57:52.564Z,96647.97
2023-04-16T16:00:18.966Z,96651.16
2023-04-16T16:02:45.510Z,96663.75
2023-04-16T16:05:12.036Z,96657.22
2023-04-16T16:07:38.398Z,96657.69
2023-04-16T16:10:04.774Z,96660.22
2023-04-16T16:12:31.165Z,96661.81
2023-04-16T16:14:57.508Z,96665.88
2023-04-16T16:17:23.952Z,96668.38
2023-04-16T16:19:50.358Z,96668.31
2023-04-16T16:22:16.747Z,96670.84
2023-04-16T16:24:43.130Z,96673.22
2023-04-16T16:27:09.515Z,96677.88
2023-04-16T16:29:35.856Z,96676.66
2023-04-16T16:32:02.315Z,96672.53
2023-04-16T16:34:28.803Z,96673.44
2023-04-16T16:36:55.194Z,96681.56
2023-04-16T16:39:21.560Z,96681.34
2023-04-16T16:41:47.900Z,96685.94
2023-04-16T16:44:14.254Z,96683.53
2023-04-16T16:46:40.617Z,96679.88
2023-04-16T16:49:07.056Z,96681.25
2023-04-16T16:51:33.400Z,96689.31
2023-04-16T16:53:59.758Z,96688.84
2023-04-16T16:56:26.134Z,96694.34
2023-04-16T16:58:52.478Z,96688.66
2023-04-16T17:01:18.840Z,96686.47
2023-04-16T17:03:45.301Z,96692.41
2023-04-16T17:06:11.735Z,96687.28
2023-04-16T17:08:38.114Z,96694.31
2023-04-16T17:11:04.524Z,96700.50
2023-04-16T17:13:30.941Z,96694.13
2023-04-16T17:15:57.294Z,96694.59
2023-04-16T17:18:23.691Z,96695.63
2023-04-16T17:20:50.122Z,96696.09
2023-04-16T17:23:16.468Z,96697.09
2023-04-16T17:25:42.845Z,96699.25
2023-04-16T17:28:09.239Z,96695.03
2023-04-16T17:30:35.594Z,96704.03
2023-04-16T17:33:02.034Z,96692.94
2023-04-16T17:35:28.435Z,96701.50
2023-04-16T17:37:54.779Z,96704.22
2023-04-16T17:40:21.225Z,96697.34
2023-04-16T17:42:47.588Z,96700.75
2023-04-16T17:45:13.933Z,96706.13
2023-04-16T17:47:40.358Z,96706.72
2023-04-16T17:50:06.755Z,96704.06
2023-04-16T17:52:33.199Z,96705.19
2023-04-16T17:54:59.628Z,96699.59
2023-04-16T17:57:26.028Z,96703.38
2023-04-16T17:59:52.471Z,96699.00
2023-04-16T18:02:18.924Z,96713.41
2023-04-16T18:04:45.598Z,96708.19
2023-04-16T18:07:12.148Z,96711.50
2023-04-16T18:09:38.560Z,96711.16
2023-04-16T18:12:04.958Z,96713.25
2023-04-16T18:14:31.347Z,96709.94
2023-04-16T18:16:57.745Z,96711.63
2023-04-16T18:19:24.134Z,96704.97
2023-04-16T18:21:50.483Z,96706.25
2023-04-16T18:24:16.835Z,96712.31
2023-04-16T18:26:46.239Z,96706.53
2023-04-16T18:29:13.787Z,96714.66
2023-04-16T18:31:40.405Z,96704.13
2023-04-16T18:34:06.882Z,96712.63
2023-04-16T18:36:33.337Z,96709.44
2023-04-16T18:39:02.389Z,96707.97
2023-04-16T18:41:29.238Z,96709.53
2023-04-16T18:43:55.731Z,96713.78
2023-04-16T18:46:22.112Z,96714.16
2023-04-16T18:48:48.473Z,96712.13
2023-04-16T18:51:16.266Z,96720.59
2023-04-16T18:53:43.122Z,96721.81
2023-04-16T18:56:09.462Z,96722.63
2023-04-16T18:58:35.807Z,96727.41
2023-04-16T19:01:02.248Z,96726.97
2023-04-16T19:03:28.786Z,96721.25
2023-04-16T19:05:55.317Z,96720.81
2023-04-16T19:08:21.700Z,96718.78
2023-04-16T19:10:48.098Z,96726.06
2023-04-16T19:13:14.430Z,96717.81
2023-04-16T19:15:40.800Z,96725.56
2023-04-16T19:18:07.136Z,96728.41
2023-04-16T19:20:33.473Z,96734.69
2023-04-16T19:22:59.805Z,96736.41
2023-04-16T19:25:26.225Z,96732.56
2023-04-16T19:27:52.591Z,96734.47
2023-04-16T19:30:18.930Z,96735.06
2023-04-16T19:32:45.300Z,96741.44
2023-04-16T19:35:11.676Z,96735.84
2023-04-16T19:37:38.024Z,96736.09
2023-04-16T19:40:04.372Z,96746.16
2023-04-16T19:42:30.749Z,96745.84
2023-04-16T19:44:57.109Z,96746.13
2023-04-16T19:47:23.438Z,96741.44
2023-04-16T19:49:49.818Z,96741.88
2023-04-16T19:52:16.154Z,96743.59
2023-04-16T19:54:42.515Z,96740.75
2023-04-16T19:57:08.850Z,96740.66
2023-04-16T19:59:35.225Z,96735.66
2023-04-16T20:02:01.727Z,96737.16
2023-04-16T20:04:28.191Z,96738.75
2023-04-16T20:06:54.605Z,96732.84
2023-04-16T20:09:21.004Z,96730.50
2023-04-16T20:11:47.385Z,96725.47
2023-04-16T20:14:13.778Z,96726.59
2023-04-16T20:16:40.220Z,96725.78
2023-04-16T20:19:08.701Z,96727.50
2023-04-16T20:21:35.535Z,96725.16
2023-04-16T20:24:01.948Z,96723.97
2023-04-16T20:26:28.394Z,96715.97
2023-04-16T20:28:54.763Z,96716.75
2023-04-16T20:31:21.164Z,96715.72
2023-04-16T20:33:47.534Z,96711.69
2023-04-16T20:36:13.926Z,96722.19
2023-04-16T20:38:40.310Z,96728.38
2023-04-16T20:41:06.669Z,96720.81
2023-04-16T20:43:33.007Z,96720.75
2023-04-16T20:45:59.366Z,96723.94
2023-04-16T20:48:25.947Z,96717.81
2023-04-16T20:50:52.392Z,96713.75
2023-04-16T20:53:18.769Z,96716.91
2023-04-16T20:55:45.113Z,96722.16
2023-04-16T20:58:11.442Z,96712.69
2023-04-16T21:00:37.778Z,96716.16
2023-04-16T21:03:04.350Z,96713.88
2023-04-16T21:05:30.838Z,96713.44
2023-04-16T21:07:57.193Z,96710.38
2023-04-16T21:10:23.529Z,96701.75
2023-04-16T21:12:49.907Z,96706.91
2023-04-16T21:15:16.302Z,96711.50
2023-04-16T21:17:42.788Z,96702.69
2023-04-16T21:20:09.221Z,96693.63
2023-04-16T21:22:35.605Z,96696.38
2023-04-16T21:25:01.991Z,96694.84
2023-04-16T21:27:28.331Z,96697.75
2023-04-16T21:29:54.714Z,96697.47
2023-04-16T21:32:21.090Z,96705.16
2023-04-16T21:34:47.480Z,96703.22
2023-04-16T21:37:13.868Z,96701.41
2023-04-16T21:39:40.253Z,96708.00
2023-04-16T21:42:06.612Z,96705.38
2023-04-16T21:44:32.987Z,96698.03
2023-04-16T21:46:59.493Z,96704.59
2023-04-16T21:49:25.927Z,96705.72
2023-04-16T21:51:52.269Z,96692.41
2023-04-16T21:54:18.641Z,96700.94
2023-04-16T21:56:45.057Z,96703.41
2023-04-16T21:59:11.612Z,96697.03
2023-04-16T22:01:38.173Z,96695.94
2023-04-16T22:04:04.544Z,96695.56
2023-04-16T22:06:30.930Z,96690.97
2023-04-16T22:08:57.262Z,96683.50
2023-04-16T22:11:23.610Z,96674.63
2023-04-16T22:13:49.995Z,96679.19
2023-04-16T22:16:16.438Z,96676.03
2023-04-16T22:18:42.867Z,96672.97
2023-04-16T22:21:09.224Z,96677.66
2023-04-16T22:23:35.577Z,96681.22
2023-04-16T22:26:01.906Z,96681.44
2023-04-16T22:28:28.244Z,96676.38
2023-04-16T22:30:54.622Z,96675.06
2023-04-16T22:33:20.997Z,96669.66
2023-04-16T22:35:47.397Z,96673.47
2023-04-16T22:38:13.734Z,96661.81
2023-04-16T22:40:40.111Z,96664.72
2023-04-16T22:43:06.510Z,96658.03
2023-04-16T22:45:32.859Z,96654.34
2023-04-16T22:47:59.284Z,96644.31
2023-04-16T22:50:25.688Z,96648.94
2023-04-16T22:52:52.077Z,96649.06
2023-04-16T22:55:18.500Z,96648.31
2023-04-16T22:57:44.916Z,96647.25
2023-04-16T23:00:11.310Z,96653.38
2023-04-16T23:02:37.750Z,96648.16
2023-04-16T23:05:04.189Z,96643.25
2023-04-16T23:07:30.529Z,96646.34
2023-04-16T23:09:56.879Z,96643.56
2023-04-16T23:12:23.217Z,96650.50
2023-04-16T23:14:49.593Z,96644.06
2023-04-16T23:17:15.988Z,96649.75
2023-04-16T23:19:42.428Z,96649.47
2023-04-16T23:22:08.816Z,96641.47
2023-04-16T23:24:35.204Z,96643.44
2023-04-16T23:27:01.589Z,96636.56
2023-04-16T23:29:27.954Z,96642.97
2023-04-16T23:31:54.378Z,96639.38
2023-04-16T23:34:20.776Z,96633.00
2023-04-16T23:36:47.147Z,96631.06
2023-04-16T23:39:14.642Z,96634.69
2023-04-16T23:41:40.978Z,96635.06
2023-04-16T23:44:07.334Z,96625.09
2023-04-16T23:46:33.686Z,96619.84
2023-04-16T23:49:00.048Z,96618.59
2023-04-16T23:51:26.375Z,96616.78
2023-04-16T23:53:52.736Z,96611.53
2023-04-16T23:56:19.117Z,96603.94
2023-04-16T23:58:45.488Z,96605.16
